Lubny, Ukraine
Current Conditions -  °F | °C
As of 3:30 AM on Friday 19 Dec 2014 (Local Time) from UKBB Reporting Station
Broken Clouds Broken Clouds  
Wind Chill: 25°   Ceiling: 1600
Heat Index: 34°   Visibility: 4mi
Dew Point: 34°   Wind: 11mph
Humidity: 100%   Direction: 220°SW
Pressure: 29.94"   Gusts: NA
Location:  50.02°N, 33.01°E
Report Text: UKBB 190030Z 22005MPS 7000 SCT008 BKN016 01/01 Q1014 88290050 TEMPO 1400 BR
Loading
Personal Weather Stations






























Interactive Weather Map New forecast layout! Learn more

10-Day Weather Forecast

Advertisements
Track Severe Weather on mobile